sensor_id;sensor_type;location;lat;lon;timestamp;P1;durP1;ratioP1;P2;durP2;ratioP2
81896;SDS011;71360;43.506;1.500;2023-12-29T00:00:01;18.90;;;10.70;;
81896;SDS011;71360;43.506;1.500;2023-12-29T00:02:27;21.60;;;11.43;;
81896;SDS011;71360;43.506;1.500;2023-12-29T00:04:53;19.60;;;10.67;;
81896;SDS011;71360;43.506;1.500;2023-12-29T00:07:18;20.57;;;10.87;;
81896;SDS011;71360;43.506;1.500;2023-12-29T00:09:44;20.83;;;10.50;;
81896;SDS011;71360;43.506;1.500;2023-12-29T00:12:09;21.80;;;10.88;;
81896;SDS011;71360;43.506;1.500;2023-12-29T00:14:38;20.77;;;10.63;;
81896;SDS011;71360;43.506;1.500;2023-12-29T00:17:05;17.35;;;10.32;;
81896;SDS011;71360;43.506;1.500;2023-12-29T00:19:30;19.37;;;10.37;;
81896;SDS011;71360;43.506;1.500;2023-12-29T00:21:56;18.20;;;10.10;;
81896;SDS011;71360;43.506;1.500;2023-12-29T00:24:21;19.58;;;10.57;;
81896;SDS011;71360;43.506;1.500;2023-12-29T00:26:46;18.33;;;10.23;;
81896;SDS011;71360;43.506;1.500;2023-12-29T00:29:13;22.97;;;9.90;;
81896;SDS011;71360;43.506;1.500;2023-12-29T00:31:40;19.20;;;9.85;;
81896;SDS011;71360;43.506;1.500;2023-12-29T00:34:06;17.83;;;9.90;;
81896;SDS011;71360;43.506;1.500;2023-12-29T00:36:32;18.37;;;9.70;;
81896;SDS011;71360;43.506;1.500;2023-12-29T00:39:00;19.48;;;10.02;;
81896;SDS011;71360;43.506;1.500;2023-12-29T00:41:26;16.43;;;9.77;;
81896;SDS011;71360;43.506;1.500;2023-12-29T00:43:51;17.03;;;9.43;;
81896;SDS011;71360;43.506;1.500;2023-12-29T00:46:17;16.67;;;9.32;;
81896;SDS011;71360;43.506;1.500;2023-12-29T00:48:45;16.70;;;9.47;;
81896;SDS011;71360;43.506;1.500;2023-12-29T00:51:11;21.08;;;9.77;;
81896;SDS011;71360;43.506;1.500;2023-12-29T00:53:36;20.70;;;10.37;;
81896;SDS011;71360;43.506;1.500;2023-12-29T00:56:02;16.33;;;9.80;;
81896;SDS011;71360;43.506;1.500;2023-12-29T00:58:28;20.15;;;9.70;;
81896;SDS011;71360;43.506;1.500;2023-12-29T01:00:53;15.67;;;9.30;;
81896;SDS011;71360;43.506;1.500;2023-12-29T01:03:19;19.07;;;9.53;;
81896;SDS011;71360;43.506;1.500;2023-12-29T01:05:45;21.92;;;10.48;;
81896;SDS011;71360;43.506;1.500;2023-12-29T01:08:11;18.60;;;10.20;;
81896;SDS011;71360;43.506;1.500;2023-12-29T01:10:36;19.13;;;10.23;;
81896;SDS011;71360;43.506;1.500;2023-12-29T01:13:02;17.83;;;10.23;;
81896;SDS011;71360;43.506;1.500;2023-12-29T01:15:27;15.57;;;10.13;;
81896;SDS011;71360;43.506;1.500;2023-12-29T01:17:53;16.70;;;10.48;;
81896;SDS011;71360;43.506;1.500;2023-12-29T01:20:19;20.90;;;10.27;;
81896;SDS011;71360;43.506;1.500;2023-12-29T01:22:44;17.07;;;10.40;;
81896;SDS011;71360;43.506;1.500;2023-12-29T01:25:10;19.60;;;10.07;;
81896;SDS011;71360;43.506;1.500;2023-12-29T01:27:35;17.57;;;9.87;;
81896;SDS011;71360;43.506;1.500;2023-12-29T01:30:00;17.42;;;10.10;;
81896;SDS011;71360;43.506;1.500;2023-12-29T01:32:26;16.17;;;9.90;;
81896;SDS011;71360;43.506;1.500;2023-12-29T01:34:52;18.93;;;10.27;;
81896;SDS011;71360;43.506;1.500;2023-12-29T01:37:17;17.92;;;10.07;;
81896;SDS011;71360;43.506;1.500;2023-12-29T01:39:43;17.27;;;9.63;;
81896;SDS011;71360;43.506;1.500;2023-12-29T01:42:08;19.85;;;10.43;;
81896;SDS011;71360;43.506;1.500;2023-12-29T01:44:35;18.47;;;9.90;;
81896;SDS011;71360;43.506;1.500;2023-12-29T01:47:01;22.23;;;10.23;;
81896;SDS011;71360;43.506;1.500;2023-12-29T01:49:30;17.33;;;9.87;;
81896;SDS011;71360;43.506;1.500;2023-12-29T01:51:57;17.25;;;10.32;;
81896;SDS011;71360;43.506;1.500;2023-12-29T01:54:25;18.58;;;10.15;;
81896;SDS011;71360;43.506;1.500;2023-12-29T01:56:54;18.73;;;10.02;;
81896;SDS011;71360;43.506;1.500;2023-12-29T01:59:21;20.13;;;10.77;;
81896;SDS011;71360;43.506;1.500;2023-12-29T02:01:50;19.40;;;10.20;;
81896;SDS011;71360;43.506;1.500;2023-12-29T02:04:15;20.75;;;11.10;;
81896;SDS011;71360;43.506;1.500;2023-12-29T02:06:42;22.38;;;10.90;;
81896;SDS011;71360;43.506;1.500;2023-12-29T02:09:08;22.00;;;11.10;;
81896;SDS011;71360;43.506;1.500;2023-12-29T02:11:34;18.25;;;10.95;;
81896;SDS011;71360;43.506;1.500;2023-12-29T02:13:59;18.10;;;10.53;;
81896;SDS011;71360;43.506;1.500;2023-12-29T02:16:50;19.00;;;11.27;;
81896;SDS011;71360;43.506;1.500;2023-12-29T02:19:36;22.63;;;11.10;;
81896;SDS011;71360;43.506;1.500;2023-12-29T02:22:06;18.55;;;11.05;;
81896;SDS011;71360;43.506;1.500;2023-12-29T02:24:33;22.17;;;11.55;;
81896;SDS011;71360;43.506;1.500;2023-12-29T02:27:02;19.90;;;12.07;;
81896;SDS011;71360;43.506;1.500;2023-12-29T02:29:31;20.52;;;11.80;;
81896;SDS011;71360;43.506;1.500;2023-12-29T02:31:59;24.23;;;12.43;;
81896;SDS011;71360;43.506;1.500;2023-12-29T02:34:26;22.00;;;11.93;;
81896;SDS011;71360;43.506;1.500;2023-12-29T02:36:55;21.27;;;11.88;;
81896;SDS011;71360;43.506;1.500;2023-12-29T02:39:21;21.05;;;11.55;;
81896;SDS011;71360;43.506;1.500;2023-12-29T02:41:47;22.40;;;11.60;;
81896;SDS011;71360;43.506;1.500;2023-12-29T02:44:12;20.83;;;11.93;;
81896;SDS011;71360;43.506;1.500;2023-12-29T02:46:38;22.65;;;12.38;;
81896;SDS011;71360;43.506;1.500;2023-12-29T02:49:04;20.05;;;12.13;;
81896;SDS011;71360;43.506;1.500;2023-12-29T02:51:29;19.43;;;11.60;;
81896;SDS011;71360;43.506;1.500;2023-12-29T02:53:55;19.73;;;11.67;;
81896;SDS011;71360;43.506;1.500;2023-12-29T02:56:22;20.33;;;11.70;;
81896;SDS011;71360;43.506;1.500;2023-12-29T02:58:47;23.23;;;12.45;;
81896;SDS011;71360;43.506;1.500;2023-12-29T03:01:13;19.15;;;11.98;;
81896;SDS011;71360;43.506;1.500;2023-12-29T03:03:39;22.60;;;12.03;;
81896;SDS011;71360;43.506;1.500;2023-12-29T03:06:05;20.23;;;11.80;;
81896;SDS011;71360;43.506;1.500;2023-12-29T03:08:31;24.50;;;12.25;;
81896;SDS011;71360;43.506;1.500;2023-12-29T03:10:57;23.95;;;12.35;;
81896;SDS011;71360;43.506;1.500;2023-12-29T03:13:23;20.67;;;11.37;;
81896;SDS011;71360;43.506;1.500;2023-12-29T03:15:48;20.57;;;11.73;;
81896;SDS011;71360;43.506;1.500;2023-12-29T03:18:14;20.50;;;12.00;;
81896;SDS011;71360;43.506;1.500;2023-12-29T03:20:39;22.33;;;11.97;;
81896;SDS011;71360;43.506;1.500;2023-12-29T03:23:05;24.83;;;11.97;;
81896;SDS011;71360;43.506;1.500;2023-12-29T03:25:30;22.60;;;11.40;;
81896;SDS011;71360;43.506;1.500;2023-12-29T03:27:55;21.70;;;12.17;;
81896;SDS011;71360;43.506;1.500;2023-12-29T03:30:21;20.50;;;11.67;;
81896;SDS011;71360;43.506;1.500;2023-12-29T03:32:46;23.13;;;11.93;;
81896;SDS011;71360;43.506;1.500;2023-12-29T03:35:12;22.43;;;11.53;;
81896;SDS011;71360;43.506;1.500;2023-12-29T03:37:38;18.97;;;11.27;;
81896;SDS011;71360;43.506;1.500;2023-12-29T03:40:03;21.17;;;11.10;;
81896;SDS011;71360;43.506;1.500;2023-12-29T03:42:29;19.87;;;11.03;;
81896;SDS011;71360;43.506;1.500;2023-12-29T03:44:54;24.30;;;10.93;;
81896;SDS011;71360;43.506;1.500;2023-12-29T03:47:20;21.10;;;10.90;;
81896;SDS011;71360;43.506;1.500;2023-12-29T03:49:45;18.67;;;10.87;;
81896;SDS011;71360;43.506;1.500;2023-12-29T03:52:11;23.13;;;11.52;;
81896;SDS011;71360;43.506;1.500;2023-12-29T03:54:36;19.03;;;11.23;;
81896;SDS011;71360;43.506;1.500;2023-12-29T03:57:02;22.37;;;10.90;;
81896;SDS011;71360;43.506;1.500;2023-12-29T03:59:27;21.37;;;10.93;;
81896;SDS011;71360;43.506;1.500;2023-12-29T04:01:53;19.23;;;10.85;;
81896;SDS011;71360;43.506;1.500;2023-12-29T04:04:18;22.17;;;11.27;;
81896;SDS011;71360;43.506;1.500;2023-12-29T04:06:47;19.93;;;11.03;;
81896;SDS011;71360;43.506;1.500;2023-12-29T04:09:12;25.80;;;11.40;;
81896;SDS011;71360;43.506;1.500;2023-12-29T04:11:38;21.07;;;11.33;;
81896;SDS011;71360;43.506;1.500;2023-12-29T04:14:03;20.88;;;11.68;;
81896;SDS011;71360;43.506;1.500;2023-12-29T04:16:29;21.13;;;11.63;;
81896;SDS011;71360;43.506;1.500;2023-12-29T04:18:54;20.43;;;11.10;;
81896;SDS011;71360;43.506;1.500;2023-12-29T04:21:20;20.63;;;11.07;;
81896;SDS011;71360;43.506;1.500;2023-12-29T04:23:45;20.33;;;11.35;;
81896;SDS011;71360;43.506;1.500;2023-12-29T04:26:10;23.37;;;12.23;;
81896;SDS011;71360;43.506;1.500;2023-12-29T04:28:36;19.33;;;11.53;;
81896;SDS011;71360;43.506;1.500;2023-12-29T04:31:01;21.87;;;11.93;;
81896;SDS011;71360;43.506;1.500;2023-12-29T04:33:28;21.35;;;11.45;;
81896;SDS011;71360;43.506;1.500;2023-12-29T04:35:54;20.93;;;11.97;;
81896;SDS011;71360;43.506;1.500;2023-12-29T04:38:19;27.10;;;11.63;;
81896;SDS011;71360;43.506;1.500;2023-12-29T04:40:46;21.33;;;11.77;;
81896;SDS011;71360;43.506;1.500;2023-12-29T04:43:14;21.87;;;11.37;;
81896;SDS011;71360;43.506;1.500;2023-12-29T04:45:40;22.60;;;11.68;;
81896;SDS011;71360;43.506;1.500;2023-12-29T04:48:05;19.53;;;11.20;;
81896;SDS011;71360;43.506;1.500;2023-12-29T04:50:31;20.55;;;11.82;;
81896;SDS011;71360;43.506;1.500;2023-12-29T04:52:56;22.73;;;11.30;;
81896;SDS011;71360;43.506;1.500;2023-12-29T04:55:22;22.33;;;12.43;;
81896;SDS011;71360;43.506;1.500;2023-12-29T04:57:47;23.90;;;12.23;;
81896;SDS011;71360;43.506;1.500;2023-12-29T05:00:13;21.57;;;11.90;;
81896;SDS011;71360;43.506;1.500;2023-12-29T05:02:39;20.77;;;12.13;;
81896;SDS011;71360;43.506;1.500;2023-12-29T05:05:04;26.07;;;11.60;;
81896;SDS011;71360;43.506;1.500;2023-12-29T05:07:30;21.00;;;11.33;;
81896;SDS011;71360;43.506;1.500;2023-12-29T05:09:55;19.92;;;12.02;;
81896;SDS011;71360;43.506;1.500;2023-12-29T05:12:21;22.10;;;11.83;;
81896;SDS011;71360;43.506;1.500;2023-12-29T05:14:46;23.27;;;12.07;;
81896;SDS011;71360;43.506;1.500;2023-12-29T05:17:12;22.07;;;11.77;;
81896;SDS011;71360;43.506;1.500;2023-12-29T05:19:37;21.77;;;11.88;;
81896;SDS011;71360;43.506;1.500;2023-12-29T05:22:03;19.07;;;11.70;;
81896;SDS011;71360;43.506;1.500;2023-12-29T05:24:28;20.47;;;10.40;;
81896;SDS011;71360;43.506;1.500;2023-12-29T05:26:56;22.70;;;11.33;;
81896;SDS011;71360;43.506;1.500;2023-12-29T05:29:24;22.50;;;11.27;;
81896;SDS011;71360;43.506;1.500;2023-12-29T05:31:49;20.92;;;10.80;;
81896;SDS011;71360;43.506;1.500;2023-12-29T05:34:15;19.90;;;10.73;;
81896;SDS011;71360;43.506;1.500;2023-12-29T05:40:18;17.52;;;10.63;;
81896;SDS011;71360;43.506;1.500;2023-12-29T05:42:46;17.77;;;10.23;;
81896;SDS011;71360;43.506;1.500;2023-12-29T05:45:18;16.48;;;10.05;;
81896;SDS011;71360;43.506;1.500;2023-12-29T05:47:43;18.92;;;10.45;;
81896;SDS011;71360;43.506;1.500;2023-12-29T05:50:09;18.13;;;10.37;;
81896;SDS011;71360;43.506;1.500;2023-12-29T05:52:34;16.57;;;9.77;;
81896;SDS011;71360;43.506;1.500;2023-12-29T05:55:00;16.45;;;9.95;;
81896;SDS011;71360;43.506;1.500;2023-12-29T05:57:25;14.93;;;9.53;;
81896;SDS011;71360;43.506;1.500;2023-12-29T05:59:51;19.88;;;10.15;;
81896;SDS011;71360;43.506;1.500;2023-12-29T06:02:17;17.87;;;10.30;;
81896;SDS011;71360;43.506;1.500;2023-12-29T06:04:42;18.67;;;9.90;;
81896;SDS011;71360;43.506;1.500;2023-12-29T06:07:08;16.27;;;9.83;;
81896;SDS011;71360;43.506;1.500;2023-12-29T06:09:34;16.20;;;9.60;;
81896;SDS011;71360;43.506;1.500;2023-12-29T06:11:59;15.87;;;9.80;;
81896;SDS011;71360;43.506;1.500;2023-12-29T06:14:25;17.53;;;9.90;;
81896;SDS011;71360;43.506;1.500;2023-12-29T06:16:51;18.93;;;10.17;;
81896;SDS011;71360;43.506;1.500;2023-12-29T06:19:17;16.77;;;10.45;;
81896;SDS011;71360;43.506;1.500;2023-12-29T06:21:43;17.65;;;10.00;;
81896;SDS011;71360;43.506;1.500;2023-12-29T06:24:09;22.27;;;10.32;;
81896;SDS011;71360;43.506;1.500;2023-12-29T06:26:36;21.63;;;10.33;;
81896;SDS011;71360;43.506;1.500;2023-12-29T06:29:06;14.63;;;9.65;;
81896;SDS011;71360;43.506;1.500;2023-12-29T06:31:50;19.40;;;10.30;;
81896;SDS011;71360;43.506;1.500;2023-12-29T06:34:15;19.10;;;10.40;;
81896;SDS011;71360;43.506;1.500;2023-12-29T06:36:41;16.70;;;9.80;;
81896;SDS011;71360;43.506;1.500;2023-12-29T06:39:06;17.80;;;10.37;;
81896;SDS011;71360;43.506;1.500;2023-12-29T06:41:32;17.88;;;9.88;;
81896;SDS011;71360;43.506;1.500;2023-12-29T06:43:58;16.10;;;9.70;;
81896;SDS011;71360;43.506;1.500;2023-12-29T06:46:23;17.93;;;9.40;;
81896;SDS011;71360;43.506;1.500;2023-12-29T06:48:49;18.10;;;9.68;;
81896;SDS011;71360;43.506;1.500;2023-12-29T06:51:18;19.53;;;9.90;;
81896;SDS011;71360;43.506;1.500;2023-12-29T06:53:45;15.70;;;9.48;;
81896;SDS011;71360;43.506;1.500;2023-12-29T06:56:13;21.25;;;9.70;;
81896;SDS011;71360;43.506;1.500;2023-12-29T06:58:41;16.42;;;9.73;;
81896;SDS011;71360;43.506;1.500;2023-12-29T07:01:07;15.87;;;9.53;;
81896;SDS011;71360;43.506;1.500;2023-12-29T07:03:32;14.90;;;9.27;;
81896;SDS011;71360;43.506;1.500;2023-12-29T07:06:01;18.17;;;9.50;;
81896;SDS011;71360;43.506;1.500;2023-12-29T07:08:27;17.48;;;9.48;;
81896;SDS011;71360;43.506;1.500;2023-12-29T07:10:53;16.70;;;10.27;;
81896;SDS011;71360;43.506;1.500;2023-12-29T07:13:18;16.13;;;9.77;;
81896;SDS011;71360;43.506;1.500;2023-12-29T07:15:44;19.90;;;10.53;;
81896;SDS011;71360;43.506;1.500;2023-12-29T07:18:11;14.60;;;9.65;;
81896;SDS011;71360;43.506;1.500;2023-12-29T07:20:36;20.52;;;9.93;;
81896;SDS011;71360;43.506;1.500;2023-12-29T07:23:02;16.83;;;10.03;;
81896;SDS011;71360;43.506;1.500;2023-12-29T07:25:28;17.43;;;10.37;;
81896;SDS011;71360;43.506;1.500;2023-12-29T07:27:53;16.65;;;10.35;;
81896;SDS011;71360;43.506;1.500;2023-12-29T07:30:19;16.80;;;10.00;;
81896;SDS011;71360;43.506;1.500;2023-12-29T07:32:44;17.03;;;9.97;;
81896;SDS011;71360;43.506;1.500;2023-12-29T07:35:10;19.30;;;10.05;;
81896;SDS011;71360;43.506;1.500;2023-12-29T07:37:35;16.40;;;9.93;;
81896;SDS011;71360;43.506;1.500;2023-12-29T07:40:01;15.80;;;9.70;;
81896;SDS011;71360;43.506;1.500;2023-12-29T07:42:26;16.58;;;10.00;;
81896;SDS011;71360;43.506;1.500;2023-12-29T07:44:52;16.53;;;10.10;;
81896;SDS011;71360;43.506;1.500;2023-12-29T07:47:20;18.15;;;10.30;;
81896;SDS011;71360;43.506;1.500;2023-12-29T07:49:45;19.50;;;10.50;;
81896;SDS011;71360;43.506;1.500;2023-12-29T07:52:11;17.33;;;10.37;;
81896;SDS011;71360;43.506;1.500;2023-12-29T07:54:36;19.23;;;10.43;;
81896;SDS011;71360;43.506;1.500;2023-12-29T07:57:02;18.93;;;10.23;;
81896;SDS011;71360;43.506;1.500;2023-12-29T07:59:28;19.05;;;11.05;;
81896;SDS011;71360;43.506;1.500;2023-12-29T08:01:53;17.60;;;10.90;;
81896;SDS011;71360;43.506;1.500;2023-12-29T08:04:18;17.10;;;11.40;;
81896;SDS011;71360;43.506;1.500;2023-12-29T08:06:44;20.83;;;11.20;;
81896;SDS011;71360;43.506;1.500;2023-12-29T08:09:10;18.50;;;11.47;;
81896;SDS011;71360;43.506;1.500;2023-12-29T08:11:36;20.55;;;11.77;;
81896;SDS011;71360;43.506;1.500;2023-12-29T08:14:01;20.73;;;12.03;;
81896;SDS011;71360;43.506;1.500;2023-12-29T08:19:34;19.73;;;12.73;;
81896;SDS011;71360;43.506;1.500;2023-12-29T08:22:11;20.13;;;13.02;;
81896;SDS011;71360;43.506;1.500;2023-12-29T08:24:39;22.00;;;13.05;;
81896;SDS011;71360;43.506;1.500;2023-12-29T08:27:06;21.73;;;12.90;;
81896;SDS011;71360;43.506;1.500;2023-12-29T08:29:31;21.33;;;13.45;;
81896;SDS011;71360;43.506;1.500;2023-12-29T08:31:57;25.53;;;13.27;;
81896;SDS011;71360;43.506;1.500;2023-12-29T08:34:23;23.67;;;13.20;;
81896;SDS011;71360;43.506;1.500;2023-12-29T08:36:49;23.03;;;13.73;;
81896;SDS011;71360;43.506;1.500;2023-12-29T08:39:14;21.20;;;13.70;;
81896;SDS011;71360;43.506;1.500;2023-12-29T08:41:40;25.23;;;14.45;;
81896;SDS011;71360;43.506;1.500;2023-12-29T08:44:05;23.97;;;14.60;;
81896;SDS011;71360;43.506;1.500;2023-12-29T08:46:31;22.83;;;13.87;;
81896;SDS011;71360;43.506;1.500;2023-12-29T08:48:56;22.07;;;13.17;;
81896;SDS011;71360;43.506;1.500;2023-12-29T08:51:21;25.80;;;12.18;;
81896;SDS011;71360;43.506;1.500;2023-12-29T08:53:47;20.40;;;12.67;;
81896;SDS011;71360;43.506;1.500;2023-12-29T08:56:12;24.87;;;13.80;;
81896;SDS011;71360;43.506;1.500;2023-12-29T08:58:38;23.55;;;14.13;;
81896;SDS011;71360;43.506;1.500;2023-12-29T09:01:04;27.30;;;14.85;;
81896;SDS011;71360;43.506;1.500;2023-12-29T09:03:30;24.97;;;14.20;;
81896;SDS011;71360;43.506;1.500;2023-12-29T09:05:55;24.10;;;15.03;;
81896;SDS011;71360;43.506;1.500;2023-12-29T09:08:22;23.52;;;15.15;;
81896;SDS011;71360;43.506;1.500;2023-12-29T09:10:47;22.33;;;13.63;;
81896;SDS011;71360;43.506;1.500;2023-12-29T09:13:13;22.40;;;13.53;;
81896;SDS011;71360;43.506;1.500;2023-12-29T09:15:38;25.07;;;13.97;;
81896;SDS011;71360;43.506;1.500;2023-12-29T09:18:04;21.07;;;13.70;;
81896;SDS011;71360;43.506;1.500;2023-12-29T09:20:29;25.05;;;13.98;;
81896;SDS011;71360;43.506;1.500;2023-12-29T09:22:55;27.02;;;14.13;;
81896;SDS011;71360;43.506;1.500;2023-12-29T09:25:21;24.70;;;14.10;;
81896;SDS011;71360;43.506;1.500;2023-12-29T09:27:46;26.03;;;13.30;;
81896;SDS011;71360;43.506;1.500;2023-12-29T09:30:14;23.63;;;13.35;;
81896;SDS011;71360;43.506;1.500;2023-12-29T09:32:40;24.47;;;14.70;;
81896;SDS011;71360;43.506;1.500;2023-12-29T09:35:05;30.23;;;15.10;;
81896;SDS011;71360;43.506;1.500;2023-12-29T09:37:31;29.85;;;16.45;;
81896;SDS011;71360;43.506;1.500;2023-12-29T09:39:56;34.27;;;17.60;;
81896;SDS011;71360;43.506;1.500;2023-12-29T09:42:22;28.27;;;18.40;;
81896;SDS011;71360;43.506;1.500;2023-12-29T09:44:51;25.52;;;17.55;;
81896;SDS011;71360;43.506;1.500;2023-12-29T09:47:20;28.75;;;17.05;;
81896;SDS011;71360;43.506;1.500;2023-12-29T09:49:48;29.20;;;16.13;;
81896;SDS011;71360;43.506;1.500;2023-12-29T09:52:14;25.97;;;15.60;;
81896;SDS011;71360;43.506;1.500;2023-12-29T09:54:42;21.92;;;14.45;;
81896;SDS011;71360;43.506;1.500;2023-12-29T09:57:08;25.98;;;15.05;;
81896;SDS011;71360;43.506;1.500;2023-12-29T09:59:34;29.17;;;15.23;;
81896;SDS011;71360;43.506;1.500;2023-12-29T10:02:04;22.08;;;14.50;;
81896;SDS011;71360;43.506;1.500;2023-12-29T10:04:30;23.45;;;14.30;;
81896;SDS011;71360;43.506;1.500;2023-12-29T10:06:55;25.83;;;14.20;;
81896;SDS011;71360;43.506;1.500;2023-12-29T10:09:24;21.10;;;13.00;;
81896;SDS011;71360;43.506;1.500;2023-12-29T10:11:51;20.95;;;12.82;;
81896;SDS011;71360;43.506;1.500;2023-12-29T10:14:30;18.88;;;12.60;;
81896;SDS011;71360;43.506;1.500;2023-12-29T10:17:03;21.10;;;12.88;;
81896;SDS011;71360;43.506;1.500;2023-12-29T10:24:46;19.63;;;12.10;;
81896;SDS011;71360;43.506;1.500;2023-12-29T10:27:14;18.23;;;12.02;;
81896;SDS011;71360;43.506;1.500;2023-12-29T10:29:39;20.10;;;12.17;;
81896;SDS011;71360;43.506;1.500;2023-12-29T10:32:05;18.30;;;12.30;;
81896;SDS011;71360;43.506;1.500;2023-12-29T10:34:30;21.10;;;12.35;;
81896;SDS011;71360;43.506;1.500;2023-12-29T10:36:59;18.52;;;11.90;;
81896;SDS011;71360;43.506;1.500;2023-12-29T10:39:26;17.75;;;11.82;;
81896;SDS011;71360;43.506;1.500;2023-12-29T10:42:02;18.70;;;11.53;;
81896;SDS011;71360;43.506;1.500;2023-12-29T10:44:33;18.25;;;12.18;;
81896;SDS011;71360;43.506;1.500;2023-12-29T10:47:07;19.40;;;11.93;;
81896;SDS011;71360;43.506;1.500;2023-12-29T10:49:33;19.95;;;11.65;;
81896;SDS011;71360;43.506;1.500;2023-12-29T10:55:33;16.17;;;10.80;;
81896;SDS011;71360;43.506;1.500;2023-12-29T10:58:00;18.27;;;11.07;;
81896;SDS011;71360;43.506;1.500;2023-12-29T11:00:29;18.77;;;11.75;;
81896;SDS011;71360;43.506;1.500;2023-12-29T11:02:55;20.65;;;12.38;;
81896;SDS011;71360;43.506;1.500;2023-12-29T11:05:21;18.03;;;11.97;;
81896;SDS011;71360;43.506;1.500;2023-12-29T11:07:50;16.30;;;10.40;;
81896;SDS011;71360;43.506;1.500;2023-12-29T11:10:19;17.73;;;11.63;;
81896;SDS011;71360;43.506;1.500;2023-12-29T11:12:45;20.33;;;11.47;;
81896;SDS011;71360;43.506;1.500;2023-12-29T11:18:34;19.80;;;11.98;;
81896;SDS011;71360;43.506;1.500;2023-12-29T11:21:02;18.90;;;11.52;;
81896;SDS011;71360;43.506;1.500;2023-12-29T11:26:56;18.83;;;11.67;;
81896;SDS011;71360;43.506;1.500;2023-12-29T11:29:22;18.63;;;12.13;;
81896;SDS011;71360;43.506;1.500;2023-12-29T11:31:49;18.27;;;11.75;;
81896;SDS011;71360;43.506;1.500;2023-12-29T11:40:22;18.75;;;11.70;;
81896;SDS011;71360;43.506;1.500;2023-12-29T11:42:57;18.50;;;11.18;;
81896;SDS011;71360;43.506;1.500;2023-12-29T11:45:28;17.58;;;10.88;;
81896;SDS011;71360;43.506;1.500;2023-12-29T11:48:00;16.42;;;10.57;;
81896;SDS011;71360;43.506;1.500;2023-12-29T11:50:28;15.83;;;10.30;;
81896;SDS011;71360;43.506;1.500;2023-12-29T11:52:58;15.50;;;10.27;;
81896;SDS011;71360;43.506;1.500;2023-12-29T11:55:37;18.65;;;10.18;;
81896;SDS011;71360;43.506;1.500;2023-12-29T11:58:04;16.40;;;9.93;;
81896;SDS011;71360;43.506;1.500;2023-12-29T12:00:48;17.55;;;10.45;;
81896;SDS011;71360;43.506;1.500;2023-12-29T12:03:32;14.40;;;9.50;;
81896;SDS011;71360;43.506;1.500;2023-12-29T12:05:57;16.35;;;9.85;;
81896;SDS011;71360;43.506;1.500;2023-12-29T12:08:28;15.52;;;9.40;;
81896;SDS011;71360;43.506;1.500;2023-12-29T12:11:44;12.68;;;9.02;;
81896;SDS011;71360;43.506;1.500;2023-12-29T12:13:54;12.77;;;8.80;;
81896;SDS011;71360;43.506;1.500;2023-12-29T12:19:08;14.52;;;8.63;;
81896;SDS011;71360;43.506;1.500;2023-12-29T12:21:34;14.77;;;8.18;;
81896;SDS011;71360;43.506;1.500;2023-12-29T12:24:01;13.60;;;7.80;;
81896;SDS011;71360;43.506;1.500;2023-12-29T12:26:29;13.93;;;8.13;;
81896;SDS011;71360;43.506;1.500;2023-12-29T12:28:58;12.25;;;7.53;;
81896;SDS011;71360;43.506;1.500;2023-12-29T12:31:24;13.25;;;8.00;;
81896;SDS011;71360;43.506;1.500;2023-12-29T12:33:56;12.30;;;7.65;;
81896;SDS011;71360;43.506;1.500;2023-12-29T12:36:22;13.05;;;7.40;;
81896;SDS011;71360;43.506;1.500;2023-12-29T12:38:52;11.63;;;7.80;;
81896;SDS011;71360;43.506;1.500;2023-12-29T12:41:19;12.50;;;7.80;;
81896;SDS011;71360;43.506;1.500;2023-12-29T12:44:10;11.52;;;7.80;;
81896;SDS011;71360;43.506;1.500;2023-12-29T12:46:35;13.27;;;7.88;;
81896;SDS011;71360;43.506;1.500;2023-12-29T12:49:06;12.63;;;7.60;;
81896;SDS011;71360;43.506;1.500;2023-12-29T12:51:32;10.80;;;7.27;;
81896;SDS011;71360;43.506;1.500;2023-12-29T12:53:58;11.93;;;7.03;;
81896;SDS011;71360;43.506;1.500;2023-12-29T12:56:25;10.43;;;6.95;;
81896;SDS011;71360;43.506;1.500;2023-12-29T12:58:54;12.73;;;8.30;;
81896;SDS011;71360;43.506;1.500;2023-12-29T13:01:21;12.20;;;7.50;;
81896;SDS011;71360;43.506;1.500;2023-12-29T13:03:47;11.75;;;7.32;;
81896;SDS011;71360;43.506;1.500;2023-12-29T13:06:17;12.50;;;7.32;;
81896;SDS011;71360;43.506;1.500;2023-12-29T13:08:43;12.43;;;6.70;;
81896;SDS011;71360;43.506;1.500;2023-12-29T13:11:09;11.90;;;7.07;;
81896;SDS011;71360;43.506;1.500;2023-12-29T13:13:40;10.25;;;7.10;;
81896;SDS011;71360;43.506;1.500;2023-12-29T13:16:07;9.50;;;7.05;;
81896;SDS011;71360;43.506;1.500;2023-12-29T13:18:33;10.73;;;6.80;;
81896;SDS011;71360;43.506;1.500;2023-12-29T13:21:00;15.45;;;7.32;;
81896;SDS011;71360;43.506;1.500;2023-12-29T13:23:27;12.68;;;7.70;;
81896;SDS011;71360;43.506;1.500;2023-12-29T13:25:56;11.85;;;7.60;;
81896;SDS011;71360;43.506;1.500;2023-12-29T13:28:24;12.07;;;7.47;;
81896;SDS011;71360;43.506;1.500;2023-12-29T13:30:53;12.33;;;7.90;;
81896;SDS011;71360;43.506;1.500;2023-12-29T13:33:29;12.80;;;8.20;;
81896;SDS011;71360;43.506;1.500;2023-12-29T13:36:11;12.20;;;7.22;;
81896;SDS011;71360;43.506;1.500;2023-12-29T13:39:22;11.55;;;6.82;;
81896;SDS011;71360;43.506;1.500;2023-12-29T13:41:55;11.70;;;6.90;;
81896;SDS011;71360;43.506;1.500;2023-12-29T13:44:21;12.53;;;7.10;;
81896;SDS011;71360;43.506;1.500;2023-12-29T13:46:49;11.90;;;7.28;;
81896;SDS011;71360;43.506;1.500;2023-12-29T13:49:37;10.63;;;6.85;;
81896;SDS011;71360;43.506;1.500;2023-12-29T13:52:03;13.15;;;7.00;;
81896;SDS011;71360;43.506;1.500;2023-12-29T13:54:29;10.13;;;6.70;;
81896;SDS011;71360;43.506;1.500;2023-12-29T13:56:55;10.83;;;6.80;;
81896;SDS011;71360;43.506;1.500;2023-12-29T13:59:30;12.73;;;8.00;;
81896;SDS011;71360;43.506;1.500;2023-12-29T14:02:03;11.43;;;7.33;;
81896;SDS011;71360;43.506;1.500;2023-12-29T14:04:46;10.75;;;6.68;;
81896;SDS011;71360;43.506;1.500;2023-12-29T14:07:20;12.77;;;6.85;;
81896;SDS011;71360;43.506;1.500;2023-12-29T14:09:55;12.85;;;7.10;;
81896;SDS011;71360;43.506;1.500;2023-12-29T14:12:24;11.95;;;7.35;;
81896;SDS011;71360;43.506;1.500;2023-12-29T14:14:51;9.47;;;6.50;;
81896;SDS011;71360;43.506;1.500;2023-12-29T14:17:21;11.98;;;6.50;;
81896;SDS011;71360;43.506;1.500;2023-12-29T14:19:48;12.23;;;6.73;;
81896;SDS011;71360;43.506;1.500;2023-12-29T14:22:33;9.18;;;6.38;;
81896;SDS011;71360;43.506;1.500;2023-12-29T14:25:40;10.15;;;6.45;;
81896;SDS011;71360;43.506;1.500;2023-12-29T14:28:15;10.07;;;6.47;;
81896;SDS011;71360;43.506;1.500;2023-12-29T14:34:04;9.57;;;6.43;;
81896;SDS011;71360;43.506;1.500;2023-12-29T14:36:30;11.83;;;6.50;;
81896;SDS011;71360;43.506;1.500;2023-12-29T14:38:57;10.05;;;6.60;;
81896;SDS011;71360;43.506;1.500;2023-12-29T14:41:22;9.65;;;6.70;;
81896;SDS011;71360;43.506;1.500;2023-12-29T14:43:49;13.87;;;6.93;;
81896;SDS011;71360;43.506;1.500;2023-12-29T14:46:14;11.73;;;7.50;;
81896;SDS011;71360;43.506;1.500;2023-12-29T14:48:40;9.97;;;6.97;;
81896;SDS011;71360;43.506;1.500;2023-12-29T14:51:06;10.55;;;7.30;;
81896;SDS011;71360;43.506;1.500;2023-12-29T14:53:32;10.48;;;7.57;;
81896;SDS011;71360;43.506;1.500;2023-12-29T14:55:58;10.70;;;7.13;;
81896;SDS011;71360;43.506;1.500;2023-12-29T14:58:24;11.23;;;7.05;;
81896;SDS011;71360;43.506;1.500;2023-12-29T15:00:50;11.32;;;7.25;;